createdAt,value
2023-05-23T00:00:17.124Z,7
2023-05-23T00:04:13.908Z,7
2023-05-23T00:06:13.438Z,5
2023-05-23T00:08:13.937Z,7
2023-05-23T00:10:13.760Z,7
2023-05-23T00:12:13.087Z,5
2023-05-23T00:14:13.703Z,8
2023-05-23T00:16:13.256Z,8
2023-05-23T00:18:14.061Z,4
2023-05-23T00:20:13.608Z,5
2023-05-23T00:22:12.974Z,5
2023-05-23T00:24:13.541Z,5
2023-05-23T00:26:13.121Z,7
2023-05-23T00:28:13.617Z,7
2023-05-23T00:30:13.306Z,7
2023-05-23T00:32:13.804Z,5
2023-05-23T00:34:13.284Z,5
2023-05-23T00:36:13.920Z,7
2023-05-23T00:38:13.595Z,7
2023-05-23T00:40:13.205Z,7
2023-05-23T00:42:13.537Z,2
2023-05-23T00:44:13.305Z,8
2023-05-23T00:46:14.015Z,8
2023-05-23T00:48:13.570Z,2
2023-05-23T00:50:13.259Z,5
2023-05-23T00:52:13.847Z,5
2023-05-23T00:54:13.366Z,7
2023-05-23T00:56:13.826Z,7
2023-05-23T00:58:13.414Z,7
2023-05-23T01:00:17.187Z,4
2023-05-23T01:04:13.156Z,5
2023-05-23T01:06:13.556Z,4
2023-05-23T01:08:13.152Z,5
2023-05-23T01:10:13.927Z,5
2023-05-23T01:12:13.249Z,6
2023-05-23T01:14:13.837Z,5
2023-05-23T01:16:14.864Z,5
2023-05-23T01:18:13.919Z,5
2023-05-23T01:20:13.820Z,7
2023-05-23T01:22:13.134Z,7
2023-05-23T01:24:13.583Z,4
2023-05-23T01:26:13.178Z,5
2023-05-23T01:28:13.657Z,5
2023-05-23T01:30:13.428Z,4
2023-05-23T01:32:14.138Z,5
2023-05-23T01:34:13.450Z,5
2023-05-23T01:36:12.968Z,4
2023-05-23T01:38:13.548Z,5
2023-05-23T01:40:13.216Z,5
2023-05-23T01:42:13.808Z,4
2023-05-23T01:44:13.267Z,5
2023-05-23T01:46:13.892Z,5
2023-05-23T01:48:13.568Z,6
2023-05-23T01:50:13.252Z,4
2023-05-23T01:52:13.608Z,4
2023-05-23T01:54:13.178Z,4
2023-05-23T01:56:13.666Z,4
2023-05-23T01:58:13.325Z,4
2023-05-23T02:00:17.005Z,4
2023-05-23T02:04:13.121Z,4
2023-05-23T02:06:13.633Z,4
2023-05-23T02:08:13.362Z,5
2023-05-23T02:10:13.973Z,5
2023-05-23T02:12:13.336Z,4
2023-05-23T02:14:13.628Z,5
2023-05-23T02:16:13.032Z,5
2023-05-23T02:18:13.694Z,4
2023-05-23T02:20:14.227Z,4
2023-05-23T02:22:13.655Z,4
2023-05-23T02:24:13.052Z,4
2023-05-23T02:26:13.484Z,4
2023-05-23T02:28:13.898Z,4
2023-05-23T02:30:13.668Z,4
2023-05-23T02:32:13.940Z,4
2023-05-23T02:34:13.450Z,4
2023-05-23T02:36:13.083Z,4
2023-05-23T02:38:13.718Z,5
2023-05-23T02:40:13.315Z,5
2023-05-23T02:42:13.580Z,1
2023-05-23T02:44:13.030Z,4
2023-05-23T02:46:13.772Z,4
2023-05-23T02:48:13.312Z,4
2023-05-23T02:50:13.708Z,4
2023-05-23T02:52:13.229Z,4
2023-05-23T02:54:13.577Z,4
2023-05-23T02:56:13.055Z,4
2023-05-23T02:58:13.616Z,4
2023-05-23T03:00:17.810Z,4
2023-05-23T03:04:13.408Z,2
2023-05-23T03:06:13.798Z,1
2023-05-23T03:08:13.311Z,4
2023-05-23T03:10:13.971Z,4
2023-05-23T03:12:13.533Z,3
2023-05-23T03:14:13.880Z,3
2023-05-23T03:16:13.797Z,3
2023-05-23T03:18:13.258Z,3
2023-05-23T03:22:13.410Z,4
2023-05-23T03:24:13.845Z,3
2023-05-23T03:26:13.375Z,4
2023-05-23T03:28:14.009Z,4
2023-05-23T03:30:13.675Z,3
2023-05-23T03:32:13.206Z,2
2023-05-23T03:34:13.914Z,2
2023-05-23T03:36:13.357Z,4
2023-05-23T03:38:13.902Z,6
2023-05-23T03:40:13.989Z,6
2023-05-23T03:42:13.391Z,3
2023-05-23T03:44:13.924Z,2
2023-05-23T03:46:13.595Z,2
2023-05-23T03:48:13.260Z,3
2023-05-23T03:50:13.946Z,3
2023-05-23T03:52:13.384Z,3
2023-05-23T03:56:13.494Z,2
2023-05-23T03:58:14.010Z,2
2023-05-23T04:00:16.661Z,3
2023-05-23T04:04:13.392Z,4
2023-05-23T04:06:14.406Z,3
2023-05-23T04:08:13.486Z,4
2023-05-23T04:10:14.171Z,4
2023-05-23T04:12:13.483Z,3
2023-05-23T04:14:13.134Z,6
2023-05-23T04:16:13.905Z,6
2023-05-23T04:18:13.275Z,3
2023-05-23T04:20:14.141Z,4
2023-05-23T04:22:13.688Z,4
2023-05-23T04:24:13.101Z,3
2023-05-23T04:26:13.488Z,2
2023-05-23T04:28:13.162Z,2
2023-05-23T04:30:13.816Z,4
2023-05-23T04:32:13.267Z,4
2023-05-23T04:34:13.973Z,4
2023-05-23T04:38:13.077Z,3
2023-05-23T04:40:14.668Z,3
2023-05-23T04:42:15.126Z,3
2023-05-23T04:44:13.947Z,2
2023-05-23T04:46:13.453Z,2
2023-05-23T04:50:13.784Z,4
2023-05-23T04:52:13.139Z,4
2023-05-23T04:54:13.645Z,3
2023-05-23T04:56:13.343Z,4
2023-05-23T04:58:13.907Z,4
2023-05-23T05:00:16.920Z,3
2023-05-23T05:04:13.871Z,5
2023-05-23T05:06:13.227Z,3
2023-05-23T05:08:13.678Z,2
2023-05-23T05:12:13.853Z,3
2023-05-23T05:14:13.470Z,4
2023-05-23T05:16:14.036Z,4
2023-05-23T05:20:13.286Z,4
2023-05-23T05:22:13.765Z,4
2023-05-23T05:24:13.500Z,3
2023-05-23T05:26:13.985Z,4
2023-05-23T05:28:13.632Z,4
2023-05-23T05:30:13.265Z,4
2023-05-23T05:32:13.717Z,4
2023-05-23T05:34:13.201Z,4
2023-05-23T05:36:13.760Z,4
2023-05-23T05:38:13.223Z,3
2023-05-23T05:40:13.908Z,3
2023-05-23T05:42:13.328Z,3
2023-05-23T05:44:14.001Z,3
2023-05-23T05:46:13.758Z,3
2023-05-23T05:48:13.104Z,1
2023-05-23T05:50:13.738Z,3
2023-05-23T05:52:13.061Z,3
2023-05-23T05:54:13.646Z,3
2023-05-23T05:56:13.067Z,3
2023-05-23T05:58:13.633Z,3
2023-05-23T06:00:17.159Z,3
2023-05-23T06:04:13.720Z,3
2023-05-23T06:06:13.131Z,3
2023-05-23T06:08:13.545Z,3
2023-05-23T06:10:13.372Z,3
2023-05-23T06:12:13.799Z,3
2023-05-23T06:14:13.697Z,4
2023-05-23T06:16:13.989Z,4
2023-05-23T06:18:13.539Z,3
2023-05-23T06:20:14.044Z,1
2023-05-23T06:22:13.471Z,1
2023-05-23T06:24:13.053Z,3
2023-05-23T06:26:13.687Z,1
2023-05-23T06:28:13.338Z,1
2023-05-23T06:30:14.066Z,1
2023-05-23T06:32:13.808Z,3
2023-05-23T06:34:14.013Z,3
2023-05-23T06:36:13.473Z,3
2023-05-23T06:38:13.036Z,2
2023-05-23T06:40:13.998Z,2
2023-05-23T06:42:13.533Z,1
2023-05-23T06:44:13.208Z,2
2023-05-23T06:46:13.996Z,2
2023-05-23T06:52:13.437Z,3
2023-05-23T06:54:13.756Z,1
2023-05-23T06:56:13.663Z,1
2023-05-23T06:58:13.328Z,1
2023-05-23T07:00:17.248Z,1
2023-05-23T07:04:12.964Z,1
2023-05-23T07:06:13.596Z,1
2023-05-23T07:08:13.094Z,2
2023-05-23T07:10:13.940Z,2
2023-05-23T07:12:13.369Z,1
2023-05-23T07:14:13.866Z,1
2023-05-23T07:16:13.625Z,1
2023-05-23T07:18:13.153Z,1
2023-05-23T07:20:13.789Z,2
2023-05-23T07:22:13.094Z,2
2023-05-23T07:24:13.805Z,0
2023-05-23T07:26:14.948Z,1
2023-05-23T07:28:13.724Z,1
2023-05-23T07:30:13.607Z,0
2023-05-23T07:32:12.978Z,1
2023-05-23T07:34:14.065Z,1
2023-05-23T07:36:13.162Z,1
2023-05-23T07:40:13.467Z,1
2023-05-23T07:44:13.442Z,1
2023-05-23T07:46:13.175Z,1
2023-05-23T07:48:13.738Z,1
2023-05-23T07:50:13.380Z,1
2023-05-23T07:52:13.796Z,1
2023-05-23T07:54:15.724Z,1
2023-05-23T07:58:13.660Z,1
2023-05-23T08:00:17.521Z,1
2023-05-23T08:02:13.986Z,0
2023-05-23T08:04:13.463Z,0
2023-05-23T08:06:13.272Z,0
2023-05-23T08:10:13.691Z,2
2023-05-23T08:12:13.470Z,1
2023-05-23T08:14:13.808Z,1
2023-05-23T08:16:13.617Z,1
2023-05-23T08:18:14.019Z,1
2023-05-23T08:20:13.630Z,1
2023-05-23T08:22:12.993Z,1
2023-05-23T08:24:15.017Z,1
2023-05-23T08:26:13.076Z,1
2023-05-23T08:28:13.689Z,1
2023-05-23T08:30:13.401Z,1
2023-05-23T08:34:13.599Z,0
2023-05-23T08:36:14.025Z,0
2023-05-23T08:38:13.506Z,1
2023-05-23T08:42:13.800Z,1
2023-05-23T08:44:13.344Z,1
2023-05-23T08:48:13.789Z,0
2023-05-23T08:50:13.443Z,1
2023-05-23T08:52:13.757Z,1
2023-05-23T08:54:13.468Z,1
2023-05-23T08:56:13.007Z,1
2023-05-23T08:58:13.525Z,1
2023-05-23T09:00:17.951Z,0
2023-05-23T09:02:13.212Z,0
2023-05-23T09:04:13.632Z,0
2023-05-23T09:06:13.681Z,0
2023-05-23T09:08:13.011Z,2
2023-05-23T09:10:13.834Z,2
2023-05-23T09:12:13.248Z,1
2023-05-23T09:14:13.682Z,2
2023-05-23T09:16:13.330Z,2
2023-05-23T09:18:13.827Z,1
2023-05-23T09:20:13.419Z,1
2023-05-23T09:22:13.835Z,1
2023-05-23T09:26:13.052Z,0
2023-05-23T09:32:13.182Z,1
2023-05-23T09:36:13.406Z,0
2023-05-23T09:38:13.945Z,1
2023-05-23T09:42:13.138Z,0
2023-05-23T09:44:13.612Z,1
2023-05-23T09:48:14.173Z,1
2023-05-23T09:50:13.612Z,1
2023-05-23T09:52:13.237Z,1
2023-05-23T09:54:13.729Z,0
2023-05-23T09:56:13.324Z,1
2023-05-23T09:58:13.954Z,1
2023-05-23T10:00:17.582Z,1
2023-05-23T10:02:13.190Z,0
2023-05-23T10:06:13.317Z,1
2023-05-23T10:08:13.028Z,1
2023-05-23T10:12:13.464Z,1
2023-05-23T10:14:13.081Z,0
2023-05-23T10:16:13.729Z,0
2023-05-23T10:18:13.574Z,1
2023-05-23T10:20:13.209Z,1
2023-05-23T10:22:13.723Z,1
2023-05-23T10:24:13.222Z,1
2023-05-23T10:26:13.882Z,1
2023-05-23T10:28:16.175Z,1
2023-05-23T10:32:13.689Z,1
2023-05-23T10:34:13.454Z,1
2023-05-23T10:36:13.185Z,1
2023-05-23T10:38:13.344Z,0
2023-05-23T10:42:13.602Z,1
2023-05-23T10:44:13.360Z,0
2023-05-23T10:46:14.073Z,0
2023-05-23T10:48:13.385Z,0
2023-05-23T10:50:13.902Z,1
2023-05-23T10:52:13.325Z,1
2023-05-23T10:54:13.830Z,0
2023-05-23T10:56:13.374Z,1
2023-05-23T10:58:13.798Z,1
2023-05-23T11:00:17.001Z,1
2023-05-23T11:04:13.320Z,1
2023-05-23T11:06:13.614Z,1
2023-05-23T11:08:13.130Z,1
2023-05-23T11:10:13.829Z,1
2023-05-23T11:12:13.454Z,1
2023-05-23T11:14:13.939Z,1
2023-05-23T11:16:13.771Z,1
2023-05-23T11:18:13.275Z,1
2023-05-23T11:20:13.877Z,1
2023-05-23T11:22:13.140Z,1
2023-05-23T11:24:13.806Z,1
2023-05-23T11:26:13.363Z,1
2023-05-23T11:28:13.802Z,1
2023-05-23T11:30:14.250Z,1
2023-05-23T11:32:16.963Z,1
2023-05-23T11:36:13.208Z,0
2023-05-23T11:38:13.639Z,1
2023-05-23T11:40:13.661Z,1
2023-05-23T11:42:13.041Z,1
2023-05-23T11:44:13.683Z,2
2023-05-23T11:46:13.294Z,2
2023-05-23T11:48:14.001Z,0
2023-05-23T11:50:13.543Z,1
2023-05-23T11:52:13.039Z,1
2023-05-23T11:54:13.875Z,0
2023-05-23T11:58:13.828Z,2
2023-05-23T12:00:19.066Z,0
2023-05-23T12:02:13.320Z,1
2023-05-23T12:04:13.964Z,1
2023-05-23T12:06:14.363Z,1
2023-05-23T12:08:13.798Z,1
2023-05-23T12:10:13.667Z,1
2023-05-23T12:12:13.010Z,0
2023-05-23T12:14:13.591Z,1
2023-05-23T12:16:13.585Z,1
2023-05-23T12:18:14.123Z,1
2023-05-23T12:20:14.410Z,1
2023-05-23T12:22:13.198Z,1
2023-05-23T12:24:13.822Z,1
2023-05-23T12:26:13.396Z,0
2023-05-23T12:28:12.993Z,0
2023-05-23T12:30:14.099Z,1
2023-05-23T12:32:13.466Z,1
2023-05-23T12:34:13.128Z,1
2023-05-23T12:36:13.747Z,1
2023-05-23T12:38:13.369Z,2
2023-05-23T12:40:14.204Z,2
2023-05-23T12:42:13.593Z,1
2023-05-23T12:44:13.373Z,1
2023-05-23T12:46:13.970Z,1
2023-05-23T12:48:13.990Z,1
2023-05-23T12:50:14.134Z,2
2023-05-23T12:52:13.599Z,2
2023-05-23T12:56:13.667Z,1
2023-05-23T12:58:13.250Z,1
2023-05-23T13:00:17.846Z,0
2023-05-23T13:04:13.182Z,1
2023-05-23T13:06:13.737Z,1
2023-05-23T13:08:13.214Z,2
2023-05-23T13:10:14.039Z,2
2023-05-23T13:12:13.450Z,1
2023-05-23T13:14:13.963Z,2
2023-05-23T13:18:13.895Z,0
2023-05-23T13:20:13.632Z,2
2023-05-23T13:24:13.570Z,0
2023-05-23T13:26:13.061Z,1
2023-05-23T13:28:13.645Z,1
2023-05-23T13:30:13.458Z,1
2023-05-23T13:32:13.913Z,1
2023-05-23T13:36:13.034Z,1
2023-05-23T13:38:13.525Z,1
2023-05-23T13:40:13.244Z,1
2023-05-23T13:42:13.787Z,0
2023-05-23T13:44:13.393Z,0
2023-05-23T13:46:14.191Z,0
2023-05-23T13:48:13.718Z,1
2023-05-23T13:50:13.341Z,1
2023-05-23T13:52:14.015Z,1
2023-05-23T13:54:13.559Z,1
2023-05-23T13:56:13.746Z,1
2023-05-23T13:58:13.213Z,1
2023-05-23T14:00:16.877Z,1
2023-05-23T14:04:13.121Z,0
2023-05-23T14:06:13.667Z,1
2023-05-23T14:08:13.115Z,1
2023-05-23T14:10:13.815Z,1
2023-05-23T14:12:13.349Z,1
2023-05-23T14:14:13.853Z,1
2023-05-23T14:16:13.571Z,1
2023-05-23T14:18:14.135Z,1
2023-05-23T14:20:13.716Z,1
2023-05-23T14:22:13.278Z,1
2023-05-23T14:24:13.875Z,0
2023-05-23T14:26:13.395Z,1
2023-05-23T14:28:13.014Z,1
2023-05-23T14:30:14.017Z,2
2023-05-23T14:32:13.612Z,1
2023-05-23T14:34:13.971Z,1
2023-05-23T14:36:13.519Z,1
2023-05-23T14:38:13.170Z,2
2023-05-23T14:40:14.102Z,2
2023-05-23T14:42:13.534Z,0
2023-05-23T14:44:13.321Z,1
2023-05-23T14:46:13.740Z,1
2023-05-23T14:48:13.603Z,2
2023-05-23T14:50:14.145Z,1
2023-05-23T14:52:13.437Z,1
2023-05-23T14:54:13.904Z,0
2023-05-23T14:56:13.582Z,2
2023-05-23T14:58:13.264Z,2
2023-05-23T15:00:16.559Z,1
2023-05-23T15:04:13.555Z,1
2023-05-23T15:08:13.510Z,1
2023-05-23T15:10:13.574Z,1
2023-05-23T15:12:13.880Z,0
2023-05-23T15:14:13.512Z,1
2023-05-23T15:16:13.158Z,1
2023-05-23T15:20:16.010Z,1
2023-05-23T15:22:29.858Z,1
2023-05-23T15:24:13.444Z,1
2023-05-23T15:26:13.090Z,1
2023-05-23T15:28:14.277Z,1
2023-05-23T15:30:13.310Z,0
2023-05-23T15:32:14.020Z,1
2023-05-23T15:36:13.743Z,2
2023-05-23T15:38:14.349Z,1
2023-05-23T15:40:13.229Z,1
2023-05-23T15:42:13.485Z,1
2023-05-23T15:44:14.885Z,1
2023-05-23T15:46:14.016Z,1
2023-05-23T15:48:13.618Z,0
2023-05-23T15:52:13.533Z,2
2023-05-23T15:54:13.311Z,0
2023-05-23T15:56:13.636Z,1
2023-05-23T15:58:13.012Z,1
2023-05-23T16:00:16.387Z,1
2023-05-23T16:04:13.872Z,1
2023-05-23T16:06:13.466Z,1
2023-05-23T16:08:13.068Z,1
2023-05-23T16:10:13.712Z,1
2023-05-23T16:12:13.266Z,1
2023-05-23T16:14:13.596Z,1
2023-05-23T16:16:13.335Z,1
2023-05-23T16:18:13.848Z,1
2023-05-23T16:20:13.414Z,1
2023-05-23T16:22:13.015Z,1
2023-05-23T16:24:13.500Z,0
2023-05-23T16:26:12.961Z,1
2023-05-23T16:28:13.601Z,1
2023-05-23T16:30:13.344Z,1
2023-05-23T16:32:13.964Z,2
2023-05-23T16:34:13.327Z,2
2023-05-23T16:36:13.940Z,1
2023-05-23T16:38:13.371Z,0
2023-05-23T16:40:14.148Z,0
2023-05-23T16:44:13.225Z,0
2023-05-23T16:46:13.925Z,0
2023-05-23T16:48:13.488Z,1
2023-05-23T16:50:14.178Z,1
2023-05-23T16:54:13.320Z,0
2023-05-23T16:56:13.775Z,1
2023-05-23T16:58:13.361Z,1
2023-05-23T17:00:18.128Z,0
2023-05-23T17:02:13.221Z,1
2023-05-23T17:04:13.838Z,1
2023-05-23T17:06:13.412Z,0
2023-05-23T17:08:13.150Z,0
2023-05-23T17:10:13.927Z,0
2023-05-23T17:12:13.480Z,0
2023-05-23T17:14:13.193Z,1
2023-05-23T17:16:13.811Z,1
2023-05-23T17:18:13.486Z,0
2023-05-23T17:20:13.994Z,0
2023-05-23T17:22:13.405Z,0
2023-05-23T17:24:13.060Z,1
2023-05-23T17:26:13.607Z,1
2023-05-23T17:28:13.124Z,1
2023-05-23T17:30:13.799Z,0
2023-05-23T17:32:13.327Z,0
2023-05-23T17:34:13.822Z,0
2023-05-23T17:36:13.400Z,0
2023-05-23T17:38:13.805Z,2
2023-05-23T17:40:13.731Z,2
2023-05-23T17:42:13.073Z,1
2023-05-23T17:44:13.610Z,0
2023-05-23T17:46:13.113Z,0
2023-05-23T17:48:13.876Z,0
2023-05-23T17:50:13.405Z,1
2023-05-23T17:52:13.766Z,1
2023-05-23T17:54:13.593Z,0
2023-05-23T17:56:13.164Z,0
2023-05-23T17:58:13.638Z,0
2023-05-23T18:00:15.463Z,0
2023-05-23T18:04:13.883Z,0
2023-05-23T18:06:13.140Z,0
2023-05-23T18:08:13.716Z,0
2023-05-23T18:10:13.238Z,0
2023-05-23T18:12:13.733Z,0
2023-05-23T18:14:13.209Z,0
2023-05-23T18:16:13.804Z,0
2023-05-23T18:22:13.461Z,0
2023-05-23T18:24:13.807Z,0
2023-05-23T18:26:13.548Z,0
2023-05-23T18:28:13.206Z,0
2023-05-23T18:30:13.829Z,1
2023-05-23T18:32:13.202Z,0
2023-05-23T18:34:13.897Z,0
2023-05-23T18:38:14.075Z,0
2023-05-23T18:40:13.884Z,0
2023-05-23T18:44:13.887Z,0
2023-05-23T18:46:13.522Z,0
2023-05-23T18:48:14.005Z,2
2023-05-23T18:50:13.694Z,0
2023-05-23T18:52:12.949Z,0
2023-05-23T18:54:13.533Z,0
2023-05-23T18:56:13.014Z,0
2023-05-23T18:58:13.498Z,0
2023-05-23T19:00:16.525Z,0
2023-05-23T19:04:13.530Z,0
2023-05-23T19:06:12.991Z,0
2023-05-23T19:08:13.628Z,1
2023-05-23T19:10:13.534Z,1
2023-05-23T19:12:14.018Z,0
2023-05-23T19:14:13.492Z,0
2023-05-23T19:16:13.970Z,0
2023-05-23T19:18:13.901Z,0
2023-05-23T19:20:13.298Z,0
2023-05-23T19:22:13.718Z,0
2023-05-23T19:26:13.887Z,0
2023-05-23T19:28:13.546Z,0
2023-05-23T19:30:13.410Z,0
2023-05-23T19:32:13.987Z,0
2023-05-23T19:34:13.384Z,0
2023-05-23T19:36:13.832Z,0
2023-05-23T19:38:13.546Z,0
2023-05-23T19:40:13.492Z,0
2023-05-23T19:42:13.902Z,0
2023-05-23T19:44:13.541Z,0
2023-05-23T19:46:13.176Z,0
2023-05-23T19:48:13.709Z,0
2023-05-23T19:50:19.866Z,0
2023-05-23T19:52:13.256Z,0
2023-05-23T19:54:13.642Z,0
2023-05-23T19:58:13.844Z,0
2023-05-23T20:00:16.618Z,0
2023-05-23T20:04:13.829Z,0
2023-05-23T20:06:13.060Z,0
2023-05-23T20:08:13.513Z,0
2023-05-23T20:10:13.972Z,0
2023-05-23T20:12:13.429Z,0
2023-05-23T20:14:13.912Z,0
2023-05-23T20:16:13.526Z,0
2023-05-23T20:18:13.183Z,0
2023-05-23T20:20:13.525Z,0
2023-05-23T20:22:14.030Z,0
2023-05-23T20:24:13.578Z,0
2023-05-23T20:26:13.056Z,0
2023-05-23T20:28:13.658Z,0
2023-05-23T20:30:13.407Z,0
2023-05-23T20:32:13.760Z,0
2023-05-23T20:36:13.946Z,0
2023-05-23T20:38:13.228Z,0
2023-05-23T20:40:13.964Z,0
2023-05-23T20:44:13.051Z,1
2023-05-23T20:46:13.692Z,1
2023-05-23T20:48:13.992Z,1
2023-05-23T20:50:13.803Z,0
2023-05-23T20:52:13.064Z,0
2023-05-23T20:56:13.081Z,0
2023-05-23T20:58:13.682Z,0
2023-05-23T21:00:16.449Z,0
2023-05-23T21:04:13.463Z,0
2023-05-23T21:06:14.010Z,0
2023-05-23T21:08:13.323Z,0
2023-05-23T21:10:14.144Z,0
2023-05-23T21:12:13.777Z,0
2023-05-23T21:14:13.114Z,0
2023-05-23T21:16:13.712Z,0
2023-05-23T21:18:13.394Z,0
2023-05-23T21:20:14.080Z,0
2023-05-23T21:22:13.571Z,0
2023-05-23T21:24:13.202Z,0
2023-05-23T21:26:13.826Z,0
2023-05-23T21:28:13.521Z,0
2023-05-23T21:30:13.308Z,0
2023-05-23T21:32:13.670Z,0
2023-05-23T21:34:33.548Z,0
2023-05-23T21:36:13.853Z,0
2023-05-23T21:38:13.533Z,0
2023-05-23T21:40:13.249Z,0
2023-05-23T21:42:13.715Z,0
2023-05-23T21:44:13.493Z,0
2023-05-23T21:46:14.061Z,0
2023-05-23T21:48:13.379Z,0
2023-05-23T21:50:14.191Z,0
2023-05-23T21:52:13.601Z,0
2023-05-23T21:54:13.211Z,0
2023-05-23T21:56:13.638Z,0
2023-05-23T21:58:13.176Z,0
2023-05-23T22:04:13.168Z,0
2023-05-23T22:06:13.660Z,0
2023-05-23T22:08:13.199Z,0
2023-05-23T22:10:13.987Z,0
2023-05-23T22:12:13.623Z,0
2023-05-23T22:14:13.153Z,0
2023-05-23T22:16:13.933Z,0
2023-05-23T22:18:13.367Z,0
2023-05-23T22:22:13.533Z,0
2023-05-23T22:24:13.113Z,0
2023-05-23T22:26:13.896Z,0
2023-05-23T22:28:13.597Z,0
2023-05-23T22:30:13.231Z,0
2023-05-23T22:34:13.509Z,0
2023-05-23T22:36:12.969Z,0
2023-05-23T22:38:13.539Z,0
2023-05-23T22:40:13.423Z,0
2023-05-23T22:42:13.990Z,0
2023-05-23T22:44:13.498Z,0
2023-05-23T22:46:13.314Z,0
2023-05-23T22:48:13.159Z,0
2023-05-23T22:50:13.714Z,0
2023-05-23T22:52:13.972Z,0
2023-05-23T22:54:13.614Z,0
2023-05-23T22:56:13.029Z,0
2023-05-23T22:58:13.760Z,0
2023-05-23T23:00:20.545Z,0
2023-05-23T23:02:13.675Z,0
2023-05-23T23:04:13.184Z,0
2023-05-23T23:06:13.632Z,0
2023-05-23T23:08:13.192Z,1
2023-05-23T23:10:14.038Z,1
2023-05-23T23:12:13.558Z,1
2023-05-23T23:14:13.212Z,0
2023-05-23T23:16:13.641Z,0
2023-05-23T23:18:13.508Z,0
2023-05-23T23:20:14.033Z,0
2023-05-23T23:22:13.386Z,0
2023-05-23T23:24:12.973Z,0
2023-05-23T23:26:13.554Z,0
2023-05-23T23:28:13.059Z,0
2023-05-23T23:30:13.905Z,0
2023-05-23T23:32:13.391Z,0
2023-05-23T23:34:13.951Z,0
2023-05-23T23:36:13.338Z,0
2023-05-23T23:38:13.935Z,0
2023-05-23T23:40:13.401Z,0
2023-05-23T23:42:13.901Z,0
2023-05-23T23:44:13.280Z,1
2023-05-23T23:46:14.062Z,1
2023-05-23T23:48:13.483Z,1
2023-05-23T23:50:13.111Z,0
2023-05-23T23:52:13.583Z,0
2023-05-23T23:56:13.744Z,1
2023-05-23T23:58:13.322Z,1
